Pagrindinis puslapis
METAR-TAF:

METAR-TAF

Oro uostai :

Gabès, Tunisas

platuma: 33-53N, ilguma: 010-06E, Aukštis: 4 m

Dabartinis oras

Ataskaita buvo paskelbta 1 valandą ir 12 minutes, ne 23:00 UTC
Vėjas 4 kt iš Rytų
Temperatūra 27°C
Drėgmė 70%
Slėgis 1016 hPa
Matomumas 10 km arba daugiau
nėra debesų žemiau 1500 m ir nėra kamuolinių lietaus debesų

METAR: DTTG 182300Z 09004KT CAVOK 27/21 Q1016

Laikas: 01:12 (00:12 UTC)

Prognozė

Ataskaita buvo paskelbta 6 valandos ir 12 minutes, ne 18:00 UTC
Prognozė galioja nuo 18 metu 19 UTC su 19 metu 04 UTC
Vėjas 12 kt iš Rytų
Matomumas 10 km arba daugiau
nėra debesų žemiau 1500 m ir nėra kamuolinių lietaus debesų

TAF: DTTG 181800Z 1819/1904 09012KT CAVOK

Orai ataskaitas ir orų prognozės (METAR, TAF).

turimą stotys yra geltonos ir raudonos taškus žemėlapyje.

Perkelti pele per norėdami pamatyti stoties vardą.

Tada spustelėkite, norėdami matyti oro stebėjimo ir prognozės.

Norėdami pakeisti žemėlapį: spustelėkite ant žalios mygtukų su juodo kryžiaus žemyn,; žalią mygtuką su brūkšneliu, jei norite nutolinti; arba žalių rodyklių gretimoms žemėlapius.


METAR-TAF: